Time;durP1;ratioP1;P1;durP2;ratioP2;P2;SDS_P1;SDS_P2;PMS_P1;PMS_P2;Temp;Humidity;BMP_temperature;BMP_pressure;BME280_temperature;BME280_humidity;BME280_pressure;Samples;Min_cycle;Max_cycle;Signal;HPM_P1;HPM_P2
2021/12/04 00:01:06;;;;;;;11.52;9.20;;;;;;;;;;5078524;28;20144;-69
2021/12/04 00:03:32;;;;;;;11.52;9.85;;;;;;;;;;5078232;28;20056;-69
2021/12/04 00:06:05;;;;;;;13.90;9.55;;;;;;;;;;5079856;28;20053;-69
2021/12/04 00:08:35;;;;;;;11.80;9.25;;;;;;;;;;5077373;28;20174;-69
2021/12/04 00:11:04;;;;;;;12.55;9.23;;;;;;;;;;5094757;28;20083;-69
2021/12/04 00:13:31;;;;;;;11.52;9.18;;;;;;;;;;5090418;28;20056;-69
2021/12/04 00:15:57;;;;;;;12.85;9.80;;;;;;;;;;5073771;28;20084;-70
2021/12/04 00:18:24;;;;;;;10.82;8.82;;;;;;;;;;5084792;28;20071;-70
2021/12/04 00:20:51;;;;;;;11.90;8.85;;;;;;;;;;5078759;28;20570;-68
2021/12/04 00:23:17;;;;;;;13.60;9.70;;;;;;;;;;5054516;28;20049;-70
2021/12/04 00:25:43;;;;;;;11.73;9.52;;;;;;;;;;5057661;28;20060;-68
2021/12/04 00:28:10;;;;;;;12.23;10.90;;;;;;;;;;5071703;28;20536;-68
2021/12/04 00:30:37;;;;;;;12.82;10.35;;;;;;;;;;5085842;28;20076;-69
2021/12/04 00:33:10;;;;;;;12.95;9.82;;;;;;;;;;5076442;28;20049;-69
2021/12/04 00:35:44;;;;;;;14.02;10.00;;;;;;;;;;5072898;28;20580;-69
2021/12/04 00:49:16;;;;;;;12.32;9.30;;;;;;;;;;5073937;28;20057;-70
2021/12/04 00:51:50;;;;;;;12.90;9.75;;;;;;;;;;5087736;28;20049;-69
2021/12/04 00:54:17;;;;;;;15.27;9.68;;;;;;;;;;5091629;28;20070;-69
2021/12/04 00:56:44;;;;;;;14.05;10.73;;;;;;;;;;5094194;28;20080;-69
2021/12/04 00:59:11;;;;;;;13.35;10.30;;;;;;;;;;5083851;28;20059;-69
2021/12/04 01:01:39;;;;;;;13.30;10.52;;;;;;;;;;5075073;28;20057;-69
2021/12/04 01:04:09;;;;;;;14.85;11.48;;;;;;;;;;5073268;28;20481;-69
2021/12/04 01:06:35;;;;;;;13.55;10.55;;;;;;;;;;5075194;28;20093;-71
2021/12/04 01:09:02;;;;;;;14.45;10.95;;;;;;;;;;5093971;28;20083;-71
2021/12/04 01:11:29;;;;;;;13.93;10.05;;;;;;;;;;5093833;28;20079;-71
2021/12/04 01:13:55;;;;;;;14.55;10.80;;;;;;;;;;5083224;28;20053;-70
2021/12/04 01:16:22;;;;;;;15.80;11.23;;;;;;;;;;5086838;28;20052;-70
2021/12/04 01:18:49;;;;;;;15.57;10.52;;;;;;;;;;5092338;28;20056;-70
2021/12/04 01:21:15;;;;;;;19.00;11.85;;;;;;;;;;5089863;28;20052;-70
2021/12/04 01:23:41;;;;;;;15.40;11.35;;;;;;;;;;5083939;28;20057;-70
2021/12/04 01:26:08;;;;;;;13.90;10.82;;;;;;;;;;5073340;28;20535;-71
2021/12/04 01:28:34;;;;;;;14.68;10.93;;;;;;;;;;5074171;28;20485;-70
2021/12/04 01:31:00;;;;;;;14.73;11.13;;;;;;;;;;5075290;28;20077;-70
2021/12/04 01:33:27;;;;;;;13.63;10.77;;;;;;;;;;5073490;28;20565;-69
2021/12/04 01:35:53;;;;;;;13.38;10.07;;;;;;;;;;5090168;28;20062;-70
2021/12/04 01:38:20;;;;;;;13.65;10.50;;;;;;;;;;5077930;28;20049;-70
2021/12/04 01:40:47;;;;;;;13.60;10.32;;;;;;;;;;5088393;28;20577;-69
2021/12/04 01:43:13;;;;;;;12.05;9.50;;;;;;;;;;5092488;28;20084;-70
2021/12/04 01:45:39;;;;;;;12.38;9.85;;;;;;;;;;5078404;28;20136;-71
2021/12/04 01:48:06;;;;;;;12.95;10.45;;;;;;;;;;5077636;28;20139;-69
2021/12/04 01:50:33;;;;;;;14.05;10.48;;;;;;;;;;5090016;28;20058;-70
2021/12/04 01:53:00;;;;;;;15.07;10.18;;;;;;;;;;5078774;28;20143;-69
2021/12/04 01:55:27;;;;;;;14.75;11.20;;;;;;;;;;5075660;28;20057;-70
2021/12/04 01:57:54;;;;;;;16.27;10.23;;;;;;;;;;5072920;28;20053;-69
2021/12/04 02:00:20;;;;;;;16.63;11.07;;;;;;;;;;5073240;28;20427;-69
2021/12/04 02:02:47;;;;;;;16.88;10.57;;;;;;;;;;5080123;28;20052;-69
2021/12/04 02:05:13;;;;;;;19.75;11.32;;;;;;;;;;5085500;28;20583;-70
2021/12/04 02:07:39;;;;;;;20.98;11.77;;;;;;;;;;5084167;28;20056;-69
2021/12/04 02:10:06;;;;;;;19.45;12.00;;;;;;;;;;5093036;28;20059;-70
2021/12/04 02:12:32;;;;;;;18.60;12.15;;;;;;;;;;5092869;28;20059;-69
2021/12/04 02:14:59;;;;;;;19.02;12.27;;;;;;;;;;5088003;28;20057;-69
2021/12/04 02:17:25;;;;;;;22.60;13.43;;;;;;;;;;5079203;28;20508;-70
2021/12/04 02:19:51;;;;;;;22.15;13.65;;;;;;;;;;5092951;28;20519;-71
2021/12/04 02:22:18;;;;;;;26.00;13.75;;;;;;;;;;5071310;28;20053;-67
2021/12/04 02:24:44;;;;;;;27.52;14.00;;;;;;;;;;5067771;28;20144;-69
2021/12/04 02:27:13;;;;;;;28.92;14.32;;;;;;;;;;5075511;28;20058;-69
2021/12/04 02:29:46;;;;;;;25.90;14.68;;;;;;;;;;5075534;28;20132;-69
2021/12/04 02:32:13;;;;;;;27.70;14.25;;;;;;;;;;5059392;28;20059;-69
2021/12/04 02:34:39;;;;;;;29.17;14.82;;;;;;;;;;5081949;28;20053;-69
2021/12/04 02:37:07;;;;;;;34.42;15.50;;;;;;;;;;5074292;28;20049;-69
2021/12/04 02:39:35;;;;;;;29.30;14.95;;;;;;;;;;5071936;28;20053;-69
2021/12/04 02:42:05;;;;;;;33.58;15.43;;;;;;;;;;5075766;28;20059;-69
2021/12/04 02:44:36;;;;;;;31.95;16.90;;;;;;;;;;5072353;28;20053;-69
2021/12/04 02:47:03;;;;;;;32.03;15.32;;;;;;;;;;5073248;28;20497;-69
2021/12/04 02:49:29;;;;;;;38.75;17.75;;;;;;;;;;5079488;28;20063;-69
2021/12/04 02:52:00;;;;;;;45.00;18.00;;;;;;;;;;5080823;28;20053;-69
2021/12/04 02:54:26;;;;;;;37.78;18.40;;;;;;;;;;5075736;28;20107;-69
2021/12/04 02:56:52;;;;;;;48.83;19.23;;;;;;;;;;5084453;28;20067;-69
2021/12/04 02:59:18;;;;;;;54.20;19.75;;;;;;;;;;5083860;28;20057;-69
2021/12/04 03:01:45;;;;;;;57.25;21.58;;;;;;;;;;5092313;28;20057;-69
2021/12/04 03:04:12;;;;;;;52.92;21.00;;;;;;;;;;5092688;28;20092;-69
2021/12/04 03:06:45;;;;;;;44.55;19.95;;;;;;;;;;5078974;28;20524;-68
2021/12/04 03:09:12;;;;;;;42.95;20.60;;;;;;;;;;5075597;28;20060;-69
2021/12/04 03:11:38;;;;;;;53.40;20.75;;;;;;;;;;5095423;28;20053;-69
2021/12/04 03:14:05;;;;;;;50.42;20.55;;;;;;;;;;5080117;28;20053;-69
2021/12/04 03:16:32;;;;;;;61.13;21.10;;;;;;;;;;5094498;28;22424;-70
2021/12/04 03:18:59;;;;;;;53.90;20.52;;;;;;;;;;5095927;28;20055;-69
2021/12/04 03:21:25;;;;;;;69.60;22.70;;;;;;;;;;5093731;28;20055;-69
2021/12/04 03:23:58;;;;;;;55.22;19.85;;;;;;;;;;5080604;28;20055;-69
2021/12/04 03:26:25;;;;;;;53.80;22.75;;;;;;;;;;5090655;28;20052;-69
2021/12/04 03:28:52;;;;;;;72.85;21.02;;;;;;;;;;5085502;28;20053;-69
2021/12/04 03:31:39;;;;;;;91.38;22.10;;;;;;;;;;5077265;28;20088;-69
2021/12/04 03:42:20;;;;;;;63.72;22.40;;;;;;;;;;5076128;28;20057;-68
2021/12/04 03:44:47;;;;;;;87.35;23.23;;;;;;;;;;5083677;28;20055;-69
2021/12/04 03:47:13;;;;;;;70.90;21.73;;;;;;;;;;5079041;28;20484;-69
2021/12/04 03:49:40;;;;;;;73.25;23.48;;;;;;;;;;5095080;28;20511;-69
2021/12/04 03:52:07;;;;;;;66.15;23.10;;;;;;;;;;5090915;28;20046;-70
2021/12/04 03:54:33;;;;;;;58.85;21.73;;;;;;;;;;5075059;28;20064;-69
2021/12/04 03:57:04;;;;;;;48.13;19.95;;;;;;;;;;5074663;28;20064;-69
2021/12/04 03:59:30;;;;;;;57.03;23.33;;;;;;;;;;5074391;28;20165;-69
2021/12/04 04:01:57;;;;;;;64.65;23.40;;;;;;;;;;5083425;28;20049;-69
2021/12/04 04:04:23;;;;;;;65.88;22.40;;;;;;;;;;5084178;28;20518;-69
2021/12/04 04:06:49;;;;;;;83.47;22.60;;;;;;;;;;5079823;28;20147;-69
2021/12/04 04:09:16;;;;;;;52.00;21.60;;;;;;;;;;5074272;28;20063;-69
2021/12/04 04:11:42;;;;;;;70.15;21.95;;;;;;;;;;5089458;28;20471;-69
2021/12/04 04:14:08;;;;;;;58.53;21.45;;;;;;;;;;5094037;28;20059;-69
2021/12/04 04:16:39;;;;;;;64.20;21.25;;;;;;;;;;5094286;28;20048;-69
2021/12/04 04:19:05;;;;;;;57.38;21.25;;;;;;;;;;5093259;28;20492;-70
2021/12/04 04:21:35;;;;;;;80.00;22.88;;;;;;;;;;5074955;28;20053;-69
2021/12/04 04:24:01;;;;;;;75.47;21.13;;;;;;;;;;5074116;28;20083;-69
2021/12/04 04:26:28;;;;;;;71.95;20.92;;;;;;;;;;5073646;28;20481;-70
2021/12/04 04:28:54;;;;;;;87.13;24.52;;;;;;;;;;5073734;28;20432;-69
2021/12/04 04:31:20;;;;;;;76.40;22.00;;;;;;;;;;5073902;28;20505;-69
2021/12/04 04:33:46;;;;;;;88.03;22.42;;;;;;;;;;5073910;28;20057;-71
2021/12/04 04:36:45;;;;;;;79.18;23.35;;;;;;;;;;5073938;28;20144;-70
2021/12/04 05:11:58;;;;;;;64.88;22.30;;;;;;;;;;5073907;28;20059;-70
2021/12/04 05:14:03;;;;;;;64.20;20.77;;;;;;;;;;5056276;28;20089;-69
2021/12/04 05:16:40;;;;;;;74.50;21.48;;;;;;;;;;5073583;28;20057;-69
2021/12/04 05:19:24;;;;;;;57.05;21.13;;;;;;;;;;5073119;28;20143;-70
2021/12/04 05:21:50;;;;;;;66.40;21.90;;;;;;;;;;5073109;28;20059;-70
2021/12/04 05:24:16;;;;;;;115.03;24.75;;;;;;;;;;5072779;28;20136;-70
2021/12/04 05:26:43;;;;;;;63.35;22.75;;;;;;;;;;5072771;28;20053;-71
2021/12/04 05:29:09;;;;;;;83.32;23.98;;;;;;;;;;5072872;28;20545;-70
2021/12/04 05:31:35;;;;;;;66.93;22.75;;;;;;;;;;5073414;28;20059;-70
2021/12/04 05:34:02;;;;;;;119.57;24.98;;;;;;;;;;5073312;28;20065;-69
2021/12/04 05:36:28;;;;;;;59.50;22.58;;;;;;;;;;5073091;28;20057;-70
2021/12/04 05:38:58;;;;;;;98.47;27.65;;;;;;;;;;5072172;28;20430;-69
2021/12/04 05:41:25;;;;;;;55.17;21.98;;;;;;;;;;5072955;28;20053;-70
2021/12/04 05:43:51;;;;;;;65.22;23.88;;;;;;;;;;5072804;28;20049;-70
2021/12/04 05:46:21;;;;;;;65.70;23.83;;;;;;;;;;5073897;28;20057;-70
2021/12/04 05:51:28;;;;;;;53.65;22.85;;;;;;;;;;5072586;28;20136;-69
2021/12/04 05:56:21;;;;;;;82.60;25.13;;;;;;;;;;5073378;28;20075;-69
2021/12/04 05:58:48;;;;;;;60.17;24.73;;;;;;;;;;5072449;28;20053;-69
2021/12/04 06:01:16;;;;;;;58.10;23.05;;;;;;;;;;5072325;28;20076;-68
2021/12/04 06:03:42;;;;;;;61.38;23.30;;;;;;;;;;5067794;28;20111;-69
2021/12/04 06:06:09;;;;;;;55.95;23.00;;;;;;;;;;5071772;28;20493;-70
2021/12/04 06:08:35;;;;;;;61.03;24.50;;;;;;;;;;5071011;28;20479;-68
2021/12/04 06:11:01;;;;;;;55.28;23.65;;;;;;;;;;5088163;28;20057;-69
2021/12/04 06:13:28;;;;;;;63.00;23.15;;;;;;;;;;5079042;28;20106;-69
2021/12/04 06:15:54;;;;;;;68.85;24.52;;;;;;;;;;5071992;28;20148;-68
2021/12/04 06:18:21;;;;;;;61.75;23.40;;;;;;;;;;5072866;28;20052;-69
2021/12/04 06:23:33;;;;;;;47.38;21.95;;;;;;;;;;5071948;28;20576;-69
2021/12/04 06:26:01;;;;;;;53.95;23.13;;;;;;;;;;5068623;28;20144;-69
2021/12/04 06:28:28;;;;;;;80.50;24.83;;;;;;;;;;5072008;28;20093;-69
2021/12/04 06:30:55;;;;;;;58.88;23.52;;;;;;;;;;5071949;28;20140;-69
2021/12/04 06:33:25;;;;;;;76.07;25.85;;;;;;;;;;5086311;28;20500;-70
2021/12/04 06:35:52;;;;;;;43.05;21.70;;;;;;;;;;5073490;28;20136;-69
2021/12/04 06:38:19;;;;;;;61.72;22.48;;;;;;;;;;5079981;28;20150;-69
2021/12/04 06:40:46;;;;;;;59.20;22.20;;;;;;;;;;5074778;28;20392;-70
2021/12/04 06:43:13;;;;;;;48.42;22.40;;;;;;;;;;5070122;28;20053;-70
2021/12/04 06:45:43;;;;;;;81.90;23.80;;;;;;;;;;5066840;28;20103;-70
2021/12/04 06:48:17;;;;;;;47.55;21.80;;;;;;;;;;5079573;28;20143;-69
2021/12/04 06:50:53;;;;;;;70.57;23.50;;;;;;;;;;5075690;28;20580;-69
2021/12/04 06:53:43;;;;;;;50.28;20.38;;;;;;;;;;5075738;28;20057;-69
2021/12/04 06:56:11;;;;;;;56.33;22.25;;;;;;;;;;5075530;28;20077;-68
2021/12/04 06:58:38;;;;;;;64.78;22.77;;;;;;;;;;5075797;28;20140;-68
2021/12/04 07:01:10;;;;;;;77.85;23.08;;;;;;;;;;5069960;28;20503;-69
2021/12/04 07:03:38;;;;;;;65.78;22.65;;;;;;;;;;5096067;28;20055;-70
2021/12/04 07:06:04;;;;;;;55.50;22.17;;;;;;;;;;5095640;28;20059;-69
2021/12/04 07:08:31;;;;;;;56.72;23.00;;;;;;;;;;5086013;28;20373;-69
2021/12/04 07:10:57;;;;;;;53.70;21.60;;;;;;;;;;5075387;28;20044;-69
2021/12/04 07:13:23;;;;;;;77.25;23.88;;;;;;;;;;5078689;28;20151;-69
2021/12/04 07:15:59;;;;;;;71.90;23.42;;;;;;;;;;5095750;28;20048;-68
2021/12/04 07:18:25;;;;;;;65.18;22.48;;;;;;;;;;5075473;28;20463;-69
2021/12/04 07:20:52;;;;;;;76.07;22.42;;;;;;;;;;5079341;28;20108;-69
2021/12/04 07:23:18;;;;;;;65.63;23.08;;;;;;;;;;5075647;28;20051;-69
2021/12/04 07:25:45;;;;;;;58.92;22.27;;;;;;;;;;5075342;28;20087;-69
2021/12/04 07:28:11;;;;;;;66.72;23.27;;;;;;;;;;5075354;28;20059;-69
2021/12/04 07:30:37;;;;;;;61.38;23.65;;;;;;;;;;5062228;28;20059;-69
2021/12/04 07:33:04;;;;;;;90.57;22.10;;;;;;;;;;5055435;28;20524;-69
2021/12/04 07:35:30;;;;;;;66.70;22.95;;;;;;;;;;5054844;28;20056;-69
2021/12/04 07:37:56;;;;;;;64.70;22.95;;;;;;;;;;5054700;28;20569;-68
2021/12/04 07:40:24;;;;;;;72.35;23.70;;;;;;;;;;5054428;28;20156;-68
2021/12/04 07:42:50;;;;;;;66.22;23.67;;;;;;;;;;5066508;28;20049;-70
2021/12/04 07:45:16;;;;;;;69.00;23.02;;;;;;;;;;5075467;28;20140;-70
2021/12/04 07:47:43;;;;;;;64.03;23.05;;;;;;;;;;5072053;28;20048;-70
2021/12/04 07:50:10;;;;;;;61.78;22.50;;;;;;;;;;5068955;28;20144;-70
2021/12/04 07:52:38;;;;;;;54.63;21.42;;;;;;;;;;5069551;28;20053;-71
2021/12/04 07:55:06;;;;;;;53.65;21.95;;;;;;;;;;5073888;28;20060;-70
2021/12/04 07:57:33;;;;;;;51.00;19.38;;;;;;;;;;5065916;28;20057;-70
2021/12/04 07:59:59;;;;;;;56.05;21.38;;;;;;;;;;5073176;28;20053;-70
2021/12/04 08:02:25;;;;;;;54.53;20.75;;;;;;;;;;5072326;28;20049;-69
2021/12/04 08:04:52;;;;;;;52.55;21.77;;;;;;;;;;5070168;28;20057;-70
2021/12/04 08:07:18;;;;;;;51.28;20.27;;;;;;;;;;5079133;28;20123;-67
2021/12/04 08:09:45;;;;;;;50.85;21.70;;;;;;;;;;5075863;28;20140;-70
2021/12/04 08:12:11;;;;;;;64.53;22.38;;;;;;;;;;5089592;28;20053;-68
2021/12/04 08:14:38;;;;;;;44.15;18.95;;;;;;;;;;5073370;28;20132;-68
2021/12/04 08:17:04;;;;;;;49.97;21.63;;;;;;;;;;5073649;28;20088;-69
2021/12/04 08:19:30;;;;;;;55.33;20.15;;;;;;;;;;5073765;28;20148;-70
2021/12/04 08:21:57;;;;;;;54.42;20.10;;;;;;;;;;5073674;28;20506;-69
2021/12/04 08:24:23;;;;;;;72.95;22.95;;;;;;;;;;5073978;28;20053;-70
2021/12/04 08:26:49;;;;;;;48.03;18.48;;;;;;;;;;5072721;28;20087;-70
2021/12/04 08:29:16;;;;;;;50.45;20.33;;;;;;;;;;5074704;28;20133;-69
2021/12/04 08:31:42;;;;;;;50.65;21.23;;;;;;;;;;5073528;28;20053;-69
2021/12/04 08:34:09;;;;;;;49.50;19.85;;;;;;;;;;5074029;28;20083;-69
2021/12/04 08:36:35;;;;;;;57.33;20.40;;;;;;;;;;5073748;28;20052;-70
2021/12/04 08:39:03;;;;;;;54.08;19.63;;;;;;;;;;5073268;28;20087;-69
2021/12/04 08:41:30;;;;;;;47.03;19.77;;;;;;;;;;5073877;28;20508;-69
2021/12/04 08:43:56;;;;;;;48.30;19.77;;;;;;;;;;5073487;28;20550;-69
2021/12/04 08:46:23;;;;;;;58.80;19.42;;;;;;;;;;5073913;28;20542;-69
2021/12/04 08:48:50;;;;;;;42.58;18.48;;;;;;;;;;5073864;28;20053;-68
2021/12/04 08:51:18;;;;;;;48.40;20.50;;;;;;;;;;5073704;28;20049;-68
2021/12/04 08:53:45;;;;;;;50.55;19.40;;;;;;;;;;5073511;28;20049;-68
2021/12/04 08:56:11;;;;;;;56.03;20.35;;;;;;;;;;5090331;28;20546;-68
2021/12/04 08:58:40;;;;;;;53.78;19.40;;;;;;;;;;5075050;28;20053;-67
2021/12/04 09:01:11;;;;;;;43.58;19.08;;;;;;;;;;5073667;28;20531;-66
2021/12/04 09:03:40;;;;;;;62.00;22.00;;;;;;;;;;5070195;28;20057;-67
2021/12/04 09:06:06;;;;;;;50.03;21.48;;;;;;;;;;5069947;28;20056;-68
2021/12/04 09:08:33;;;;;;;48.63;21.92;;;;;;;;;;5071291;28;20045;-66
2021/12/04 09:11:01;;;;;;;52.58;19.80;;;;;;;;;;5073863;28;20139;-67
2021/12/04 09:13:28;;;;;;;63.58;23.27;;;;;;;;;;5081366;28;20052;-71
2021/12/04 09:15:56;;;;;;;52.58;21.90;;;;;;;;;;5076804;28;20055;-68
2021/12/04 09:18:24;;;;;;;52.35;21.88;;;;;;;;;;5073615;28;20553;-69
2021/12/04 09:20:53;;;;;;;41.92;20.45;;;;;;;;;;5073285;28;20061;-69
2021/12/04 09:23:20;;;;;;;52.90;20.90;;;;;;;;;;5073742;28;20147;-68
2021/12/04 09:25:53;;;;;;;50.88;23.15;;;;;;;;;;5073345;28;20080;-68
2021/12/04 09:28:23;;;;;;;50.60;20.98;;;;;;;;;;5073470;28;20156;-68
2021/12/04 10:01:51;;;;;;;50.88;20.10;;;;;;;;;;5010904;28;20173;-68
2021/12/04 10:04:45;;;;;;;90.22;23.30;;;;;;;;;;5054928;28;20073;-61
2021/12/04 10:18:24;;;;;;;49.85;19.45;;;;;;;;;;5060094;28;20127;-64
2021/12/04 10:24:00;;;;;;;49.55;18.63;;;;;;;;;;5056471;28;20440;-66
2021/12/04 10:34:48;;;;;;;55.03;19.73;;;;;;;;;;5075903;28;20083;-65
2021/12/04 10:37:19;;;;;;;50.60;18.63;;;;;;;;;;5075820;28;20057;-65
2021/12/04 10:39:47;;;;;;;47.72;20.27;;;;;;;;;;5070015;28;20067;-66
2021/12/04 10:42:19;;;;;;;54.13;19.65;;;;;;;;;;5075774;28;20049;-66
2021/12/04 10:44:51;;;;;;;45.08;18.13;;;;;;;;;;5064902;28;20184;-65
2021/12/04 10:47:23;;;;;;;56.95;20.80;;;;;;;;;;5075745;28;20084;-66
2021/12/04 11:00:52;;;;;;;49.58;18.75;;;;;;;;;;5091303;28;20059;-66
2021/12/04 11:06:31;;;;;;;44.10;17.77;;;;;;;;;;5057511;28;20104;-69
2021/12/04 11:23:07;;;;;;;51.92;20.33;;;;;;;;;;5075482;28;20408;-67
2021/12/04 11:28:47;;;;;;;62.08;22.33;;;;;;;;;;5075065;28;20049;-67
2021/12/04 11:39:56;;;;;;;51.25;21.17;;;;;;;;;;5077505;28;20056;-68
2021/12/04 11:45:03;;;;;;;56.22;19.60;;;;;;;;;;5063760;28;20055;-67
2021/12/04 11:47:39;;;;;;;50.47;20.38;;;;;;;;;;5075135;28;20531;-67
2021/12/04 11:50:16;;;;;;;56.83;20.27;;;;;;;;;;5073575;28;20140;-67
2021/12/04 11:52:44;;;;;;;52.40;20.52;;;;;;;;;;5074095;28;20056;-67
2021/12/04 11:55:11;;;;;;;61.45;20.33;;;;;;;;;;5074613;28;20526;-67
2021/12/04 11:57:38;;;;;;;49.15;19.88;;;;;;;;;;5074760;28;20059;-68
2021/12/04 12:00:07;;;;;;;54.20;19.70;;;;;;;;;;5074677;28;20084;-68
2021/12/04 12:02:33;;;;;;;46.95;19.73;;;;;;;;;;5074298;28;20053;-68
2021/12/04 12:05:00;;;;;;;60.17;21.08;;;;;;;;;;5074295;28;20075;-67
2021/12/04 12:07:27;;;;;;;61.30;21.75;;;;;;;;;;5073387;28;20531;-67
2021/12/04 12:10:20;;;;;;;60.35;20.92;;;;;;;;;;5072326;28;20084;-68
2021/12/04 12:12:47;;;;;;;47.85;21.85;;;;;;;;;;5054082;28;20057;-68
2021/12/04 12:15:20;;;;;;;47.17;20.05;;;;;;;;;;5081913;28;20091;-67
2021/12/04 12:17:46;;;;;;;55.13;20.92;;;;;;;;;;5075150;28;20057;-69
2021/12/04 12:20:19;;;;;;;48.58;21.00;;;;;;;;;;5073635;28;20567;-67
2021/12/04 12:22:51;;;;;;;54.78;21.60;;;;;;;;;;5071345;28;20091;-68
2021/12/04 12:25:24;;;;;;;49.35;21.52;;;;;;;;;;5083077;28;20059;-68
2021/12/04 12:31:46;;;;;;;;;;;;;;;;;;5074354;28;20052;-68
2021/12/04 12:33:42;;;;;;;47.75;19.73;;;;;;;;;;5088299;28;20049;-68
2021/12/04 12:36:11;;;;;;;45.35;20.52;;;;;;;;;;5084420;28;20045;-69
2021/12/04 12:38:58;;;;;;;46.17;20.55;;;;;;;;;;5073790;28;20052;-70
2021/12/04 12:41:29;;;;;;;49.83;20.02;;;;;;;;;;5072769;28;20092;-70
2021/12/04 12:44:09;;;;;;;50.38;20.83;;;;;;;;;;5074205;28;20041;-69
2021/12/04 12:46:38;;;;;;;44.40;20.67;;;;;;;;;;5053764;28;20079;-69
2021/12/04 12:49:15;;;;;;;40.30;19.73;;;;;;;;;;5053317;28;20053;-69
2021/12/04 12:51:43;;;;;;;49.40;21.33;;;;;;;;;;5053675;28;20080;-70
2021/12/04 12:54:09;;;;;;;40.75;18.70;;;;;;;;;;5066179;28;20057;-68
2021/12/04 12:56:37;;;;;;;44.63;21.17;;;;;;;;;;5073767;28;20053;-69
2021/12/04 12:59:21;;;;;;;43.38;20.52;;;;;;;;;;5073812;28;20063;-69
2021/12/04 13:13:23;;;;;;;43.70;19.53;;;;;;;;;;5060172;28;20057;-68
2021/12/04 13:15:49;;;;;;;53.25;21.33;;;;;;;;;;5072877;28;20144;-69
2021/12/04 13:18:21;;;;;;;44.05;19.58;;;;;;;;;;5073503;28;20496;-69
2021/12/04 13:20:48;;;;;;;41.38;20.65;;;;;;;;;;5073710;28;20053;-69
2021/12/04 13:23:16;;;;;;;43.38;19.65;;;;;;;;;;5073434;28;20527;-69
2021/12/04 13:25:52;;;;;;;47.22;20.88;;;;;;;;;;5078258;28;20049;-69
2021/12/04 13:28:20;;;;;;;50.65;20.48;;;;;;;;;;5069264;28;20080;-67
2021/12/04 13:30:46;;;;;;;49.90;21.08;;;;;;;;;;5093357;28;20092;-68
2021/12/04 13:33:13;;;;;;;52.05;21.38;;;;;;;;;;5077507;28;20571;-69
2021/12/04 13:35:44;;;;;;;45.30;20.73;;;;;;;;;;5074964;28;20084;-68
2021/12/04 13:38:12;;;;;;;50.35;22.25;;;;;;;;;;5071996;28;20049;-68
2021/12/04 13:40:39;;;;;;;44.92;21.98;;;;;;;;;;5071403;28;20504;-69
2021/12/04 13:43:13;;;;;;;50.83;21.73;;;;;;;;;;5072500;28;20466;-68
2021/12/04 13:45:40;;;;;;;43.75;21.30;;;;;;;;;;5072778;28;20472;-68
2021/12/04 13:48:07;;;;;;;46.47;21.55;;;;;;;;;;5071561;28;20053;-69
2021/12/04 13:53:05;;;;;;;50.85;21.35;;;;;;;;;;5072847;28;20083;-69
2021/12/04 13:55:36;;;;;;;41.97;19.25;;;;;;;;;;5072753;28;20155;-69
2021/12/04 13:58:03;;;;;;;43.65;18.40;;;;;;;;;;5072804;28;20049;-68
2021/12/04 14:00:29;;;;;;;36.92;20.45;;;;;;;;;;5072809;28;20516;-68
2021/12/04 14:02:56;;;;;;;34.38;18.13;;;;;;;;;;5072977;28;20060;-68
2021/12/04 14:05:23;;;;;;;35.55;18.90;;;;;;;;;;5072643;28;20045;-68
2021/12/04 14:07:54;;;;;;;39.22;18.52;;;;;;;;;;5071004;28;20049;-69
2021/12/04 14:10:30;;;;;;;38.97;18.23;;;;;;;;;;5072269;28;20103;-68
2021/12/04 14:12:57;;;;;;;39.08;18.75;;;;;;;;;;5071217;28;20037;-68
2021/12/04 14:15:24;;;;;;;38.70;18.58;;;;;;;;;;5075123;28;20060;-68
2021/12/04 14:17:58;;;;;;;31.10;15.90;;;;;;;;;;5069759;28;20053;-69
2021/12/04 14:20:25;;;;;;;30.83;15.63;;;;;;;;;;5071426;28;20136;-69
2021/12/04 14:22:53;;;;;;;29.95;15.43;;;;;;;;;;5073124;28;20155;-69
2021/12/04 14:25:20;;;;;;;29.10;15.85;;;;;;;;;;5077341;28;20055;-68
2021/12/04 14:27:46;;;;;;;24.55;14.48;;;;;;;;;;5065282;28;20151;-69
2021/12/04 14:30:17;;;;;;;24.00;14.32;;;;;;;;;;5068728;28;20924;-70
2021/12/04 14:32:46;;;;;;;27.88;14.05;;;;;;;;;;5071478;28;20053;-68
2021/12/04 14:35:15;;;;;;;22.20;13.70;;;;;;;;;;5070184;28;20053;-69
2021/12/04 14:37:43;;;;;;;24.55;14.02;;;;;;;;;;5070380;28;20111;-67
2021/12/04 14:40:12;;;;;;;25.95;13.95;;;;;;;;;;5066667;28;20501;-67
2021/12/04 14:42:38;;;;;;;24.00;12.43;;;;;;;;;;5071439;28;20074;-67
2021/12/04 14:45:12;;;;;;;23.25;12.43;;;;;;;;;;5064740;28;20054;-68
2021/12/04 14:47:44;;;;;;;22.60;13.10;;;;;;;;;;5069251;28;20107;-68
2021/12/04 14:50:11;;;;;;;22.45;12.77;;;;;;;;;;5070547;28;20147;-68
2021/12/04 14:52:38;;;;;;;27.27;13.52;;;;;;;;;;5069846;28;20921;-68
2021/12/04 14:55:16;;;;;;;23.50;13.45;;;;;;;;;;5067106;28;20053;-67
2021/12/04 14:57:43;;;;;;;24.17;11.93;;;;;;;;;;5065390;28;20057;-69
2021/12/04 15:00:15;;;;;;;20.90;11.85;;;;;;;;;;5069339;28;20560;-69
2021/12/04 15:02:48;;;;;;;24.38;12.63;;;;;;;;;;5061686;28;20081;-68
2021/12/04 15:05:23;;;;;;;23.80;12.00;;;;;;;;;;5060158;28;20050;-69
2021/12/04 15:07:58;;;;;;;19.50;10.82;;;;;;;;;;5066757;28;20059;-68
2021/12/04 15:10:40;;;;;;;19.08;9.85;;;;;;;;;;5058062;28;22154;-68
2021/12/04 15:13:17;;;;;;;19.48;9.13;;;;;;;;;;5071807;28;20497;-70
2021/12/04 15:15:44;;;;;;;17.48;9.75;;;;;;;;;;5077350;28;20115;-68
2021/12/04 15:18:13;;;;;;;20.23;10.60;;;;;;;;;;5074546;28;20278;-67
2021/12/04 15:20:48;;;;;;;19.67;9.48;;;;;;;;;;5064420;28;20140;-69
2021/12/04 15:23:20;;;;;;;24.67;10.38;;;;;;;;;;5063022;28;20555;-69
2021/12/04 15:25:53;;;;;;;22.50;10.32;;;;;;;;;;5075559;28;20045;-70
2021/12/04 15:28:21;;;;;;;20.52;9.25;;;;;;;;;;5075013;28;20080;-67
2021/12/04 15:30:55;;;;;;;22.58;9.38;;;;;;;;;;5079753;28;20139;-67
2021/12/04 15:33:24;;;;;;;21.30;9.05;;;;;;;;;;5072090;28;20045;-69
2021/12/04 15:35:54;;;;;;;17.30;8.50;;;;;;;;;;5072973;28;20064;-69
2021/12/04 15:38:36;;;;;;;16.98;8.18;;;;;;;;;;5073150;28;20141;-69
2021/12/04 15:43:57;;;;;;;14.75;6.63;;;;;;;;;;5054632;28;20059;-69
2021/12/04 15:46:41;;;;;;;17.58;7.95;;;;;;;;;;5079023;28;20142;-69
2021/12/04 15:49:28;;;;;;;15.45;6.38;;;;;;;;;;5077878;28;20592;-70
2021/12/04 15:54:56;;;;;;;16.52;7.03;;;;;;;;;;5082937;28;20049;-68
2021/12/04 15:57:24;;;;;;;16.40;6.35;;;;;;;;;;5072262;28;20053;-69
2021/12/04 15:59:52;;;;;;;14.25;7.47;;;;;;;;;;5062364;28;20112;-68
2021/12/04 16:02:21;;;;;;;16.83;6.85;;;;;;;;;;5072379;28;20103;-68
2021/12/04 16:04:50;;;;;;;13.80;6.63;;;;;;;;;;5071458;28;20066;-68
2021/12/04 16:07:24;;;;;;;14.23;5.90;;;;;;;;;;5066501;28;20133;-70
2021/12/04 16:09:51;;;;;;;15.77;6.85;;;;;;;;;;5055990;28;20053;-70
2021/12/04 16:12:20;;;;;;;13.75;6.25;;;;;;;;;;5072362;28;20049;-68
2021/12/04 16:14:52;;;;;;;13.43;6.25;;;;;;;;;;5072072;28;20128;-68
2021/12/04 16:17:20;;;;;;;16.45;6.97;;;;;;;;;;5070537;28;20484;-68
2021/12/04 16:19:51;;;;;;;13.25;6.15;;;;;;;;;;5072219;28;20057;-68
2021/12/04 16:22:18;;;;;;;15.10;6.53;;;;;;;;;;5072190;28;20588;-68
2021/12/04 16:24:47;;;;;;;18.55;6.47;;;;;;;;;;5073930;28;20057;-68
2021/12/04 16:27:21;;;;;;;14.07;6.82;;;;;;;;;;5066862;28;20060;-68
2021/12/04 16:30:34;;;;;;;;;;;;;;;;;;5081023;28;20056;-66
2021/12/04 16:33:08;;;;;;;16.20;6.90;;;;;;;;;;5061300;28;46956;-67
2021/12/04 16:35:53;;;;;;;15.75;6.78;;;;;;;;;;5061398;28;20063;-69
2021/12/04 16:38:21;;;;;;;25.08;8.73;;;;;;;;;;5072459;28;20056;-68
2021/12/04 16:40:48;;;;;;;23.00;9.55;;;;;;;;;;5070855;28;20060;-66
2021/12/04 16:43:20;;;;;;;20.08;8.27;;;;;;;;;;5069987;28;20601;-67
2021/12/04 16:45:47;;;;;;;15.18;8.15;;;;;;;;;;5072606;28;20048;-67
2021/12/04 16:48:15;;;;;;;19.92;10.00;;;;;;;;;;5073073;28;20084;-69
2021/12/04 16:54:58;;;;;;;17.23;8.52;;;;;;;;;;5061239;28;20511;-67
2021/12/04 16:58:54;;;;;;;16.42;8.00;;;;;;;;;;5071271;28;20091;-69
2021/12/04 17:01:20;;;;;;;19.27;8.43;;;;;;;;;;5067166;28;20049;-66
2021/12/04 17:03:48;;;;;;;27.83;8.52;;;;;;;;;;5056873;28;20048;-67
2021/12/04 17:06:15;;;;;;;16.15;6.60;;;;;;;;;;5069334;28;20053;-68
2021/12/04 17:08:42;;;;;;;19.00;7.85;;;;;;;;;;5058589;28;20058;-67
2021/12/04 17:11:08;;;;;;;14.88;6.78;;;;;;;;;;5067052;28;20136;-67
2021/12/04 17:13:34;;;;;;;18.75;7.90;;;;;;;;;;5067961;28;20507;-67
2021/12/04 17:16:02;;;;;;;17.20;8.23;;;;;;;;;;5053476;28;20049;-68
2021/12/04 17:18:29;;;;;;;16.70;6.43;;;;;;;;;;5069077;28;20487;-68
2021/12/04 17:20:56;;;;;;;22.20;6.82;;;;;;;;;;5061245;28;20055;-68
2021/12/04 17:23:23;;;;;;;15.65;5.60;;;;;;;;;;5057860;28;20474;-66
2021/12/04 17:25:51;;;;;;;12.57;6.50;;;;;;;;;;5058357;28;20169;-67
2021/12/04 17:28:21;;;;;;;12.48;6.45;;;;;;;;;;5058800;28;20516;-68
2021/12/04 17:30:49;;;;;;;14.50;5.65;;;;;;;;;;5066366;28;20057;-67
2021/12/04 17:33:16;;;;;;;14.18;5.70;;;;;;;;;;5068819;28;20056;-68
2021/12/04 17:35:42;;;;;;;12.15;5.63;;;;;;;;;;5068046;28;20056;-68